createdAt,value
2019-05-06T00:03:06.190Z,6.73
2019-05-06T00:08:08.263Z,4.57
2019-05-06T00:13:10.313Z,6.80
2019-05-06T00:18:13.894Z,7.30
2019-05-06T00:23:21.768Z,6.23
2019-05-06T00:28:29.375Z,5.90
2019-05-06T00:33:31.409Z,7.17
2019-05-06T00:38:34.168Z,8.97
2019-05-06T00:43:36.356Z,6.20
2019-05-06T00:48:38.547Z,9.10
2019-05-06T00:53:44.185Z,8.00
2019-05-06T00:58:46.288Z,9.40
2019-05-06T01:03:48.383Z,11.17
2019-05-06T01:08:50.443Z,11.33
2019-05-06T01:14:04.204Z,10.87
2019-05-06T01:19:06.267Z,11.77
2019-05-06T01:24:08.297Z,11.47
2019-05-06T01:29:10.375Z,8.53
2019-05-06T01:34:13.771Z,9.90
2019-05-06T01:39:34.147Z,14.37
2019-05-06T01:44:36.314Z,9.83
2019-05-06T01:49:38.393Z,10.57
2019-05-06T01:54:40.448Z,10.20
2019-05-06T01:59:44.370Z,15.87
2019-05-06T02:04:46.527Z,13.27
2019-05-06T02:09:48.555Z,9.37
2019-05-06T02:14:50.621Z,13.13
2019-05-06T02:19:54.654Z,9.33
2019-05-06T02:25:05.040Z,10.20
2019-05-06T02:30:30.245Z,10.93
2019-05-06T02:35:36.983Z,13.67
2019-05-06T02:40:39.019Z,12.10
2019-05-06T02:45:43.307Z,11.97
2019-05-06T02:51:03.410Z,9.53
2019-05-06T02:56:04.923Z,10.63
2019-05-06T03:01:07.026Z,10.47
2019-05-06T03:06:09.087Z,8.50
2019-05-06T03:11:13.559Z,9.90
2019-05-06T03:16:15.118Z,11.17
2019-05-06T03:21:29.874Z,10.33
2019-05-06T03:26:33.181Z,14.80
2019-05-06T03:31:36.663Z,7.70
2019-05-06T03:36:41.004Z,9.43
2019-05-06T03:41:43.686Z,9.90
2019-05-06T03:47:05.774Z,11.97
2019-05-06T03:52:08.039Z,10.53
2019-05-06T03:57:13.684Z,8.30
2019-05-06T04:02:15.512Z,8.20
2019-05-06T04:07:19.239Z,16.20
2019-05-06T04:12:23.394Z,10.73
2019-05-06T04:17:43.874Z,8.57
2019-05-06T04:22:53.189Z,12.67
2019-05-06T04:27:57.933Z,10.77
2019-05-06T04:33:03.117Z,13.47
2019-05-06T04:38:04.235Z,9.60
2019-05-06T04:43:06.270Z,12.20
2019-05-06T04:48:08.510Z,13.80
2019-05-06T04:53:13.461Z,13.43
2019-05-06T04:58:14.932Z,10.40
2019-05-06T05:03:17.106Z,12.10
2019-05-06T05:08:22.345Z,10.90
2019-05-06T05:13:49.750Z,10.50
2019-05-06T05:18:56.081Z,12.00
2019-05-06T05:23:58.266Z,11.43
2019-05-06T05:29:02.573Z,11.13
2019-05-06T05:34:04.551Z,10.93
2019-05-06T05:39:07.363Z,9.23
2019-05-06T05:44:14.589Z,10.40
2019-05-06T05:49:28.797Z,10.50
2019-05-06T05:54:32.987Z,11.93
2019-05-06T05:59:34.813Z,11.18
2019-05-06T06:04:36.892Z,7.58
2019-05-06T06:09:47.700Z,8.50
2019-05-06T06:15:12.698Z,8.63
2019-05-06T06:20:33.851Z,11.55
2019-05-06T06:25:35.959Z,9.60
2019-05-06T06:30:47.669Z,9.08
2019-05-06T06:35:56.816Z,10.13
2019-05-06T06:40:58.947Z,8.58
2019-05-06T06:46:02.465Z,10.18
2019-05-06T06:51:04.743Z,6.45
2019-05-06T06:56:29.182Z,12.23
2019-05-06T07:01:36.880Z,7.62
2019-05-06T07:06:43.103Z,8.88
2019-05-06T07:11:45.175Z,9.98
2019-05-06T07:16:47.239Z,7.78
2019-05-06T07:21:53.442Z,9.53
2019-05-06T07:27:15.115Z,12.65
2019-05-06T07:32:17.170Z,12.23
2019-05-06T07:37:19.357Z,11.40
2019-05-06T07:42:27.175Z,7.33
2019-05-06T07:47:37.561Z,6.80
2019-05-06T07:52:42.161Z,11.60
2019-05-06T07:57:56.937Z,8.67
2019-05-06T08:02:59.005Z,6.77
2019-05-06T08:08:03.439Z,9.60
2019-05-06T08:13:05.203Z,12.70
2019-05-06T08:18:07.277Z,9.23
2019-05-06T08:23:17.817Z,7.73
2019-05-06T08:28:22.389Z,6.57
2019-05-06T08:33:23.822Z,9.40
2019-05-06T08:38:25.899Z,9.40
2019-05-06T08:43:28.105Z,9.93
2019-05-06T08:48:32.391Z,7.00
2019-05-06T08:53:44.756Z,6.00
2019-05-06T08:58:47.567Z,9.13
2019-05-06T09:04:05.033Z,6.17
2019-05-06T09:08:56.959Z,6.77
2019-05-06T09:13:59.202Z,6.73
2019-05-06T09:19:04.447Z,8.43
2019-05-06T09:24:06.221Z,5.73
2019-05-06T09:29:14.899Z,4.97
2019-05-06T09:34:39.436Z,6.43
2019-05-06T09:39:44.708Z,5.77
2019-05-06T09:44:50.276Z,5.57
2019-05-06T09:49:52.865Z,4.37
2019-05-06T09:55:03.305Z,5.77
2019-05-06T10:00:06.831Z,4.93
2019-05-06T10:05:09.098Z,4.27
2019-05-06T10:10:11.421Z,5.33
2019-05-06T10:15:13.521Z,6.10
2019-05-06T10:20:15.808Z,4.43
2019-05-06T10:25:17.876Z,7.87
2019-05-06T10:30:19.903Z,6.17
2019-05-06T10:35:23.188Z,7.33
2019-05-06T10:40:32.931Z,4.37
2019-05-06T10:45:35.326Z,6.50
2019-05-06T10:50:43.009Z,4.47
2019-05-06T10:55:49.635Z,3.17
2019-05-06T11:01:12.572Z,3.83
2019-05-06T11:06:16.702Z,4.07
2019-05-06T11:11:31.594Z,4.83
2019-05-06T11:16:23.716Z,4.37
2019-05-06T11:21:26.218Z,6.23
2019-05-06T11:26:28.411Z,4.17
2019-05-06T11:31:43.362Z,2.93
2019-05-06T11:36:48.858Z,2.00
2019-05-06T11:42:06.241Z,3.23
2019-05-06T11:46:54.969Z,3.83
2019-05-06T11:51:57.032Z,5.53
2019-05-06T11:57:02.921Z,3.10
2019-05-06T12:02:06.045Z,4.20
2019-05-06T12:07:15.229Z,2.70
2019-05-06T12:12:12.846Z,6.07
2019-05-06T12:17:15.097Z,2.60
2019-05-06T12:22:17.120Z,3.03
2019-05-06T12:27:37.429Z,3.87
2019-05-06T12:32:45.898Z,5.00
2019-05-06T12:37:53.033Z,5.10
2019-05-06T12:43:14.626Z,5.67
2019-05-06T12:48:26.354Z,2.80
2019-05-06T12:53:28.440Z,3.87
2019-05-06T12:58:30.479Z,2.83
2019-05-06T13:03:34.844Z,4.50
2019-05-06T13:08:54.075Z,2.83
2019-05-06T13:13:55.570Z,8.77
2019-05-06T13:18:47.721Z,5.10
2019-05-06T13:23:52.557Z,2.97
2019-05-06T13:28:58.867Z,8.20
2019-05-06T13:34:05.628Z,4.27
2019-05-06T13:39:14.264Z,6.97
2019-05-06T13:44:13.512Z,7.23
2019-05-06T13:49:34.351Z,3.93
2019-05-06T13:54:36.825Z,8.10
2019-05-06T13:59:39.105Z,4.93
2019-05-06T14:04:44.279Z,5.47
2019-05-06T14:09:48.897Z,3.87
2019-05-06T14:14:53.783Z,6.40
2019-05-06T14:19:55.881Z,4.37
2019-05-06T14:25:33.127Z,6.00
2019-05-06T14:30:53.775Z,4.53
2019-05-06T14:35:56.043Z,3.90
2019-05-06T14:41:13.118Z,3.73
2019-05-06T14:46:14.866Z,5.80
2019-05-06T14:51:17.254Z,4.33
2019-05-06T14:56:25.606Z,4.43
2019-05-06T15:01:27.685Z,7.23
2019-05-06T15:06:29.930Z,4.47
2019-05-06T15:11:32.538Z,5.63
2019-05-06T15:16:35.071Z,7.33
2019-05-06T15:21:38.783Z,5.03
2019-05-06T15:26:52.033Z,6.43
2019-05-06T15:32:05.741Z,4.77
2019-05-06T15:37:16.943Z,5.07
2019-05-06T15:42:19.007Z,3.03
2019-05-06T15:47:22.724Z,5.67
2019-05-06T15:52:25.056Z,7.80
2019-05-06T15:57:27.210Z,5.50
2019-05-06T16:02:29.299Z,7.17
2019-05-06T16:07:34.999Z,6.97
2019-05-06T16:12:36.536Z,3.87
2019-05-06T16:17:38.673Z,3.87
2019-05-06T16:22:44.190Z,3.10
2019-05-06T16:27:51.039Z,4.23
2019-05-06T16:32:52.662Z,8.43
2019-05-06T16:37:55.022Z,5.00
2019-05-06T16:42:57.113Z,5.43
2019-05-06T16:47:59.156Z,3.73
2019-05-06T16:53:02.728Z,3.30
2019-05-06T16:58:10.119Z,6.87
2019-05-06T17:03:17.936Z,5.20
2019-05-06T17:08:23.349Z,5.37
2019-05-06T17:13:25.189Z,4.60
2019-05-06T17:18:28.507Z,2.60
2019-05-06T17:23:32.422Z,5.50
2019-05-06T17:28:52.560Z,5.40
2019-05-06T17:33:56.136Z,4.97
2019-05-06T17:38:58.232Z,4.20
2019-05-06T17:44:02.293Z,4.50
2019-05-06T17:49:17.372Z,4.40
2019-05-06T17:54:19.635Z,3.70
2019-05-06T17:59:21.677Z,6.77
2019-05-06T18:04:23.988Z,5.10
2019-05-06T18:09:26.056Z,5.10
2019-05-06T18:14:28.255Z,5.13
2019-05-06T18:19:30.377Z,5.17
2019-05-06T18:24:33.227Z,4.90
2019-05-06T18:29:36.011Z,3.67
2019-05-06T18:34:38.085Z,2.57
2019-05-06T18:39:42.333Z,4.00
2019-05-06T18:44:44.234Z,2.90
2019-05-06T18:49:46.264Z,4.40
2019-05-06T18:54:48.304Z,6.60
2019-05-06T18:59:50.395Z,6.47
2019-05-06T19:05:02.412Z,5.23
2019-05-06T19:10:09.248Z,5.07
2019-05-06T19:15:12.662Z,5.57
2019-05-06T19:20:15.234Z,8.13
2019-05-06T19:25:17.327Z,5.73
2019-05-06T19:30:19.692Z,5.17
2019-05-06T19:35:21.735Z,4.73
2019-05-06T19:40:23.900Z,5.70
2019-05-06T19:45:26.023Z,5.90
2019-05-06T19:50:28.113Z,5.87
2019-05-06T19:55:30.144Z,7.60
2019-05-06T20:00:32.629Z,5.83
2019-05-06T20:05:54.722Z,5.63
2019-05-06T20:11:09.752Z,5.57
2019-05-06T20:16:12.441Z,6.63
2019-05-06T20:21:14.671Z,7.70
2019-05-06T20:26:16.750Z,6.77
2019-05-06T20:31:22.488Z,4.43
2019-05-06T20:36:24.566Z,5.50
2019-05-06T20:41:26.567Z,8.37
2019-05-06T20:46:28.690Z,4.33
2019-05-06T20:51:32.848Z,6.87
2019-05-06T20:56:34.803Z,5.73
2019-05-06T21:01:36.974Z,6.10
2019-05-06T21:06:39.083Z,6.00
2019-05-06T21:11:42.149Z,6.83
2019-05-06T21:16:44.487Z,7.10
2019-05-06T21:21:46.543Z,8.23
2019-05-06T21:26:48.625Z,6.43
2019-05-06T21:31:52.966Z,5.23
2019-05-06T21:36:54.752Z,7.13
2019-05-06T21:41:56.862Z,7.83
2019-05-06T21:46:58.975Z,7.97
2019-05-06T21:52:02.128Z,4.67
2019-05-06T21:57:04.536Z,7.13
2019-05-06T22:02:07.949Z,6.50
2019-05-06T22:07:12.022Z,7.07
2019-05-06T22:12:13.984Z,7.50
2019-05-06T22:17:16.057Z,5.87
2019-05-06T22:22:20.535Z,6.60
2019-05-06T22:27:25.196Z,9.23
2019-05-06T22:32:27.256Z,7.03
2019-05-06T22:37:29.360Z,7.50
2019-05-06T22:42:32.288Z,6.73
2019-05-06T22:47:34.574Z,8.30
2019-05-06T22:52:36.624Z,8.57
2019-05-06T22:57:38.810Z,8.80
2019-05-06T23:02:52.728Z,8.60
2019-05-06T23:07:54.960Z,6.90
2019-05-06T23:12:57.006Z,5.67
2019-05-06T23:17:59.090Z,10.80
2019-05-06T23:23:02.419Z,8.30
2019-05-06T23:28:05.177Z,9.73
2019-05-06T23:33:07.376Z,7.20
2019-05-06T23:38:46.057Z,9.00
2019-05-06T23:44:24.660Z,10.57
2019-05-06T23:50:03.756Z,9.17
2019-05-06T23:55:44.157Z,6.80
